createdAt,value
2022-10-06T00:01:11.463Z,70845.75
2022-10-06T00:03:39.300Z,70871.59
2022-10-06T00:06:08.596Z,70839.50
2022-10-06T00:08:39.311Z,70916.41
2022-10-06T00:11:08.785Z,70893.47
2022-10-06T00:13:38.088Z,70935.13
2022-10-06T00:16:17.455Z,70954.25
2022-10-06T00:18:45.656Z,70956.94
2022-10-06T00:21:12.925Z,70957.75
2022-10-06T00:23:39.990Z,70959.81
2022-10-06T00:26:16.742Z,70967.75
2022-10-06T00:28:47.901Z,70983.44
2022-10-06T00:31:16.681Z,70984.53
2022-10-06T00:33:43.986Z,71035.78
2022-10-06T00:36:11.353Z,71034.28
2022-10-06T00:38:38.859Z,71021.53
2022-10-06T00:41:14.585Z,71020.03
2022-10-06T00:43:44.207Z,71003.47
2022-10-06T00:46:46.287Z,71031.81
2022-10-06T00:49:28.226Z,71052.09
2022-10-06T00:52:02.788Z,71045.47
2022-10-06T00:54:33.193Z,71045.13
2022-10-06T00:57:00.869Z,71024.94
2022-10-06T00:59:28.001Z,71066.84
2022-10-06T01:02:20.734Z,71067.44
2022-10-06T01:05:00.767Z,71037.16
2022-10-06T01:07:30.912Z,71047.59
2022-10-06T01:09:59.260Z,71033.66
2022-10-06T01:12:29.442Z,71023.53
2022-10-06T01:14:57.364Z,71055.00
2022-10-06T01:17:42.135Z,71028.28
2022-10-06T01:20:12.774Z,71037.25
2022-10-06T01:22:44.577Z,70996.06
2022-10-06T01:25:16.421Z,70999.16
2022-10-06T01:27:53.412Z,70926.09
2022-10-06T01:30:33.313Z,70953.22
2022-10-06T01:33:00.646Z,70938.25
2022-10-06T01:35:27.909Z,70881.78
2022-10-06T01:37:54.974Z,70882.78
2022-10-06T01:40:21.945Z,70862.22
2022-10-06T01:42:49.021Z,70797.44
2022-10-06T01:45:16.364Z,70797.53
2022-10-06T01:47:43.728Z,70770.69
2022-10-06T01:50:11.377Z,70805.38
2022-10-06T01:52:38.484Z,70766.63
2022-10-06T01:55:06.508Z,70797.47
2022-10-06T01:57:42.831Z,70775.56
2022-10-06T02:00:11.862Z,70789.84
2022-10-06T02:02:43.616Z,70729.59
2022-10-06T02:05:11.841Z,70759.88
2022-10-06T02:07:42.476Z,70696.09
2022-10-06T02:10:13.220Z,70659.03
2022-10-06T02:12:40.346Z,70701.47
2022-10-06T02:15:13.676Z,70673.44
2022-10-06T02:17:40.705Z,70697.84
2022-10-06T02:20:08.301Z,70677.25
2022-10-06T02:22:41.216Z,70623.28
2022-10-06T02:25:08.700Z,70638.75
2022-10-06T02:27:37.804Z,70579.06
2022-10-06T02:30:07.982Z,70586.19
2022-10-06T02:32:38.965Z,70608.09
2022-10-06T02:35:08.676Z,70608.41
2022-10-06T02:37:35.858Z,70589.81
2022-10-06T02:40:03.992Z,70537.31
2022-10-06T02:42:34.726Z,70546.31
2022-10-06T02:45:02.086Z,70555.75
2022-10-06T02:47:29.318Z,70566.44
2022-10-06T02:49:56.382Z,70577.13
2022-10-06T02:52:23.631Z,70529.00
2022-10-06T02:54:51.155Z,70503.41
2022-10-06T02:57:18.198Z,70515.28
2022-10-06T02:59:45.463Z,70518.22
2022-10-06T03:02:12.617Z,70505.84
2022-10-06T03:04:39.750Z,70493.78
2022-10-06T03:07:06.765Z,70501.09
2022-10-06T03:09:37.142Z,70525.28
2022-10-06T03:12:04.290Z,70524.97
2022-10-06T03:14:38.553Z,70508.75
2022-10-06T03:17:09.839Z,70467.16
2022-10-06T03:19:40.654Z,70513.19
2022-10-06T03:22:10.510Z,70526.47
2022-10-06T03:24:46.215Z,70544.69
2022-10-06T03:27:13.214Z,70564.91
2022-10-06T03:29:40.226Z,70581.28
2022-10-06T03:32:07.934Z,70629.78
2022-10-06T03:34:35.999Z,70732.69
2022-10-06T03:37:05.633Z,70749.91
2022-10-06T03:39:34.169Z,70807.53
2022-10-06T03:42:01.713Z,70783.44
2022-10-06T03:44:28.667Z,70802.94
2022-10-06T03:46:55.681Z,70788.41
2022-10-06T03:49:22.710Z,70785.78
2022-10-06T03:51:50.101Z,70838.13
2022-10-06T03:54:22.151Z,70814.78
2022-10-06T03:56:51.047Z,70769.53
2022-10-06T03:59:19.454Z,70778.97
2022-10-06T04:01:49.162Z,70839.41
2022-10-06T04:04:24.480Z,70783.50
2022-10-06T04:06:55.807Z,70796.94
2022-10-06T04:09:23.358Z,70753.75
2022-10-06T04:11:51.770Z,70745.25
2022-10-06T04:14:20.296Z,70776.41
2022-10-06T04:16:50.275Z,70696.09
2022-10-06T04:19:22.439Z,70721.94
2022-10-06T04:21:53.431Z,70717.84
2022-10-06T04:24:24.888Z,70728.88
2022-10-06T04:26:52.817Z,70709.41
2022-10-06T04:29:21.493Z,70679.31
2022-10-06T04:31:53.294Z,70638.66
2022-10-06T04:34:33.662Z,70655.94
2022-10-06T04:37:00.655Z,70619.66
2022-10-06T04:39:27.708Z,70641.97
2022-10-06T04:41:54.829Z,70653.34
2022-10-06T04:44:26.213Z,70647.38
2022-10-06T04:46:55.679Z,70610.13
2022-10-06T04:49:23.449Z,70687.47
2022-10-06T04:51:52.761Z,70679.50
2022-10-06T04:54:19.915Z,70678.00
2022-10-06T04:56:50.699Z,70680.06
2022-10-06T04:59:20.092Z,70685.72
2022-10-06T05:01:48.711Z,70677.66
2022-10-06T05:04:15.726Z,70659.00
2022-10-06T05:06:42.885Z,70678.50
2022-10-06T05:09:15.664Z,70664.06
2022-10-06T05:11:48.227Z,70697.44
2022-10-06T05:14:18.350Z,70688.34
2022-10-06T05:16:48.101Z,70680.41
2022-10-06T05:19:15.715Z,70679.84
2022-10-06T05:21:43.213Z,70655.53
2022-10-06T05:24:14.031Z,70649.63
2022-10-06T05:26:41.434Z,70661.44
2022-10-06T05:29:12.848Z,70656.66
2022-10-06T05:31:43.078Z,70714.47
2022-10-06T05:34:10.793Z,70692.50
2022-10-06T05:36:38.642Z,70723.13
2022-10-06T05:39:07.356Z,70786.00
2022-10-06T05:41:42.915Z,70825.63
2022-10-06T05:44:11.479Z,70857.09
2022-10-06T05:46:40.302Z,70876.75
2022-10-06T05:49:10.206Z,70924.53
2022-10-06T05:51:40.534Z,70955.94
2022-10-06T05:54:14.237Z,70963.31
2022-10-06T05:56:41.556Z,70981.00
2022-10-06T05:59:08.632Z,70965.13
2022-10-06T06:01:41.798Z,71010.16
2022-10-06T06:04:17.057Z,71027.50
2022-10-06T06:06:50.692Z,71050.00
2022-10-06T06:09:23.042Z,71041.06
2022-10-06T06:11:53.167Z,71041.97
2022-10-06T06:15:01.793Z,71031.28
2022-10-06T06:17:34.767Z,71054.75
2022-10-06T06:20:04.831Z,71020.97
2022-10-06T06:22:32.661Z,71005.34
2022-10-06T06:24:59.812Z,70981.69
2022-10-06T06:27:26.840Z,71001.91
2022-10-06T06:29:54.071Z,70978.84
2022-10-06T06:32:21.062Z,70871.72
2022-10-06T06:34:48.706Z,70878.69
2022-10-06T06:37:16.301Z,70772.47
2022-10-06T06:39:46.088Z,70654.78
2022-10-06T06:42:13.047Z,70640.56
2022-10-06T06:44:55.304Z,70647.69
2022-10-06T06:47:30.554Z,70544.22
2022-10-06T06:50:00.209Z,70554.66
2022-10-06T06:52:29.307Z,70542.41
2022-10-06T06:54:57.117Z,70500.28
2022-10-06T06:57:24.373Z,70476.81
2022-10-06T06:59:53.226Z,70482.88
2022-10-06T07:02:24.286Z,70448.97
2022-10-06T07:04:51.719Z,70426.00
2022-10-06T07:07:21.113Z,70413.41
2022-10-06T07:09:48.306Z,70413.09
2022-10-06T07:12:17.371Z,70402.25
2022-10-06T07:15:16.400Z,70418.81
2022-10-06T07:18:05.941Z,70460.63
2022-10-06T07:20:51.873Z,70389.09
2022-10-06T07:23:40.525Z,70422.09
2022-10-06T07:26:12.529Z,70414.53
2022-10-06T07:28:42.311Z,70372.31
2022-10-06T07:31:10.012Z,70420.69
2022-10-06T07:33:37.586Z,70383.06
2022-10-06T07:36:06.110Z,70361.22
2022-10-06T07:38:34.571Z,70393.94
2022-10-06T07:43:53.878Z,70346.56
2022-10-06T07:46:21.681Z,70380.69
2022-10-06T07:49:05.446Z,70393.91
2022-10-06T07:51:32.949Z,70413.63
2022-10-06T07:54:02.723Z,70437.03
2022-10-06T07:56:46.341Z,70451.44
2022-10-06T07:59:13.343Z,70426.06
2022-10-06T08:01:40.753Z,70423.75
2022-10-06T08:04:07.804Z,70438.81
2022-10-06T08:06:35.185Z,70453.16
2022-10-06T08:09:02.630Z,70442.22
2022-10-06T08:11:29.619Z,70440.78
2022-10-06T08:13:57.173Z,70454.34
2022-10-06T08:16:33.044Z,70442.56
2022-10-06T08:19:00.252Z,70446.09
2022-10-06T08:21:31.809Z,70472.81
2022-10-06T08:24:00.880Z,70467.69
2022-10-06T08:26:30.041Z,70496.84
2022-10-06T08:29:03.078Z,70498.09
2022-10-06T08:31:32.330Z,70459.44
2022-10-06T08:33:59.560Z,70511.88
2022-10-06T08:36:32.113Z,70476.94
2022-10-06T08:39:00.827Z,70517.00
2022-10-06T08:41:43.174Z,70536.47
2022-10-06T08:44:19.538Z,70561.28
2022-10-06T08:47:18.716Z,70515.91
2022-10-06T08:49:49.376Z,70531.78
2022-10-06T08:52:54.633Z,70470.69
2022-10-06T08:55:52.415Z,70534.59
2022-10-06T08:58:37.112Z,70580.88
2022-10-06T09:01:33.594Z,70576.13
2022-10-06T09:04:07.182Z,70543.94
2022-10-06T09:07:11.453Z,70597.56
2022-10-06T09:10:21.792Z,70601.00
2022-10-06T09:12:57.655Z,70623.81
2022-10-06T09:15:30.554Z,70635.28
2022-10-06T09:18:09.054Z,70632.13
2022-10-06T09:20:51.175Z,70634.41
2022-10-06T09:23:42.296Z,70624.69
2022-10-06T09:26:13.500Z,70614.72
2022-10-06T09:28:41.393Z,70629.06
2022-10-06T09:31:24.059Z,70683.19
2022-10-06T09:33:59.382Z,70733.94
2022-10-06T09:36:27.114Z,70753.34
2022-10-06T09:38:56.522Z,70769.22
2022-10-06T09:41:42.742Z,70762.00
2022-10-06T09:44:29.336Z,70834.41
2022-10-06T09:46:56.766Z,70856.78
2022-10-06T09:49:31.327Z,70825.19
2022-10-06T09:52:16.107Z,70883.53
2022-10-06T09:54:44.815Z,70901.28
2022-10-06T09:57:20.292Z,70876.69
2022-10-06T09:59:48.650Z,70930.19
2022-10-06T10:02:38.323Z,71164.63
2022-10-06T10:05:20.060Z,71411.88
2022-10-06T10:08:00.415Z,71687.34
2022-10-06T10:10:27.827Z,71532.75
2022-10-06T10:12:58.424Z,71577.78
2022-10-06T10:15:34.044Z,71704.28
2022-10-06T10:18:13.357Z,71544.47
2022-10-06T10:20:55.691Z,71440.31
2022-10-06T10:23:36.536Z,71577.97
2022-10-06T10:26:15.363Z,71549.47
2022-10-06T10:29:33.066Z,71353.78
2022-10-06T10:32:05.234Z,71508.94
2022-10-06T10:35:06.747Z,71580.34
2022-10-06T10:38:04.719Z,71597.34
2022-10-06T10:40:45.399Z,71600.28
2022-10-06T10:43:29.422Z,71592.72
2022-10-06T10:46:27.865Z,71594.53
2022-10-06T10:49:19.210Z,71704.28
2022-10-06T10:52:14.140Z,71848.09
2022-10-06T10:55:11.688Z,71764.28
2022-10-06T10:57:41.313Z,72092.50
2022-10-06T11:00:21.874Z,72296.16
2022-10-06T11:02:55.189Z,72195.06
2022-10-06T11:05:41.101Z,72008.59
2022-10-06T11:08:43.111Z,71960.13
2022-10-06T11:11:29.772Z,71872.50
2022-10-06T11:14:03.771Z,71612.44
2022-10-06T11:16:58.399Z,71526.03
2022-10-06T11:19:54.258Z,71387.88
2022-10-06T11:22:35.649Z,71298.97
2022-10-06T11:25:38.438Z,71228.53
2022-10-06T11:28:37.200Z,71223.38
2022-10-06T11:31:43.612Z,71206.25
2022-10-06T11:34:11.231Z,71135.66
2022-10-06T11:37:18.947Z,71081.00
2022-10-06T11:40:06.022Z,71044.16
2022-10-06T11:42:54.934Z,70982.81
2022-10-06T11:45:41.454Z,71015.38
2022-10-06T11:48:28.124Z,71286.81
2022-10-06T11:50:57.374Z,71359.69
2022-10-06T11:53:37.085Z,71362.06
2022-10-06T11:56:37.802Z,71286.44
2022-10-06T11:59:24.176Z,71443.38
2022-10-06T12:01:53.437Z,71384.97
2022-10-06T12:04:24.555Z,71286.44
2022-10-06T12:06:56.150Z,71200.22
2022-10-06T12:09:26.199Z,71179.53
2022-10-06T12:11:56.353Z,71178.09
2022-10-06T12:18:17.365Z,71185.44
2022-10-06T12:21:06.245Z,71183.03
2022-10-06T12:23:56.682Z,71306.22
2022-10-06T12:26:52.779Z,71310.41
2022-10-06T12:30:02.123Z,71345.63
2022-10-06T12:32:57.411Z,71323.06
2022-10-06T12:35:39.942Z,71357.78
2022-10-06T12:38:41.453Z,71364.03
2022-10-06T12:41:13.750Z,71362.88
2022-10-06T12:43:57.269Z,71307.50
2022-10-06T12:46:40.400Z,71290.50
2022-10-06T12:49:07.321Z,71353.78
2022-10-06T12:51:41.823Z,71354.72
2022-10-06T12:54:36.393Z,71316.28
2022-10-06T12:57:18.327Z,71313.19
2022-10-06T12:59:46.361Z,71280.47
2022-10-06T13:02:20.982Z,71275.16
2022-10-06T13:05:02.462Z,71299.81
2022-10-06T13:07:33.801Z,71291.03
2022-10-06T13:10:18.581Z,71287.16
2022-10-06T13:12:48.415Z,71301.97
2022-10-06T13:15:25.254Z,71328.34
2022-10-06T13:18:22.977Z,71317.31
2022-10-06T13:20:56.266Z,71333.28
2022-10-06T13:23:31.217Z,71331.22
2022-10-06T13:26:13.567Z,71274.41
2022-10-06T13:28:43.613Z,71266.47
2022-10-06T13:31:28.458Z,71265.25
2022-10-06T13:33:57.235Z,71244.84
2022-10-06T13:36:26.006Z,71277.81
2022-10-06T13:38:53.413Z,71228.41
2022-10-06T13:41:34.635Z,71273.66
2022-10-06T13:44:19.089Z,71225.25
2022-10-06T13:46:52.034Z,71223.69
2022-10-06T13:49:31.786Z,71186.94
2022-10-06T13:52:08.878Z,71169.94
2022-10-06T13:54:52.115Z,71231.13
2022-10-06T13:57:59.452Z,71211.81
2022-10-06T14:00:34.214Z,71206.47
2022-10-06T14:03:07.617Z,71195.00
2022-10-06T14:05:42.388Z,71224.16
2022-10-06T14:08:12.214Z,71212.81
2022-10-06T14:11:02.516Z,71234.91
2022-10-06T14:13:34.914Z,71215.78
2022-10-06T14:16:07.373Z,71220.06
2022-10-06T14:18:44.032Z,71209.03
2022-10-06T14:21:35.701Z,71217.31
2022-10-06T14:24:21.767Z,71192.63
2022-10-06T14:26:50.539Z,71149.06
2022-10-06T14:29:19.671Z,71216.34
2022-10-06T14:31:47.958Z,71156.31
2022-10-06T14:34:18.172Z,71160.53
2022-10-06T14:36:51.310Z,71201.75
2022-10-06T14:39:18.692Z,71118.97
2022-10-06T14:41:45.871Z,71183.06
2022-10-06T14:44:15.023Z,71169.06
2022-10-06T14:46:48.197Z,71174.19
2022-10-06T14:49:15.434Z,71155.25
2022-10-06T14:51:44.988Z,71118.63
2022-10-06T14:54:12.876Z,71100.81
2022-10-06T14:56:41.830Z,71095.00
2022-10-06T14:59:16.598Z,71096.19
2022-10-06T15:01:44.235Z,71112.91
2022-10-06T15:04:14.947Z,71111.38
2022-10-06T15:07:01.703Z,71079.38
2022-10-06T15:09:31.075Z,71072.25
2022-10-06T15:11:59.963Z,71089.81
2022-10-06T15:14:29.517Z,71061.97
2022-10-06T15:17:01.258Z,71107.25
2022-10-06T15:19:28.554Z,71021.47
2022-10-06T15:21:56.132Z,71001.13
2022-10-06T15:24:23.211Z,71024.47
2022-10-06T15:27:08.721Z,71000.53
2022-10-06T15:29:35.800Z,71024.59
2022-10-06T15:32:06.014Z,71000.69
2022-10-06T15:34:34.446Z,70973.41
2022-10-06T15:37:02.245Z,70978.22
2022-10-06T15:39:34.062Z,70967.31
2022-10-06T15:42:01.642Z,70908.41
2022-10-06T15:44:34.393Z,70907.56
2022-10-06T15:47:03.750Z,70899.16
2022-10-06T15:49:32.693Z,70935.53
2022-10-06T15:52:03.601Z,70910.38
2022-10-06T15:54:34.650Z,70871.91
2022-10-06T15:57:03.743Z,70896.31
2022-10-06T15:59:32.663Z,70892.16
2022-10-06T16:02:04.041Z,70867.94
2022-10-06T16:04:39.755Z,70861.44
2022-10-06T16:07:19.114Z,70886.66
2022-10-06T16:09:48.985Z,70845.56
2022-10-06T16:12:20.540Z,70837.03
2022-10-06T16:14:47.768Z,70840.31
2022-10-06T16:17:15.539Z,70819.94
2022-10-06T16:19:42.869Z,70814.69
2022-10-06T16:22:14.396Z,70794.94
2022-10-06T16:24:42.031Z,70754.50
2022-10-06T16:27:16.229Z,70786.72
2022-10-06T16:29:43.803Z,70816.34
2022-10-06T16:32:11.007Z,70764.97
2022-10-06T16:34:37.985Z,70764.41
2022-10-06T16:37:04.947Z,70732.53
2022-10-06T16:39:32.276Z,70734.09
2022-10-06T16:41:59.682Z,70716.69
2022-10-06T16:44:26.640Z,70697.75
2022-10-06T16:46:54.144Z,70702.84
2022-10-06T16:49:21.526Z,70676.28
2022-10-06T16:51:48.511Z,70681.41
2022-10-06T16:54:20.792Z,70681.16
2022-10-06T16:56:54.328Z,70655.47
2022-10-06T16:59:25.986Z,70639.63
2022-10-06T17:01:53.473Z,70617.22
2022-10-06T17:04:23.851Z,70637.09
2022-10-06T17:06:57.006Z,70583.69
2022-10-06T17:09:26.559Z,70611.53
2022-10-06T17:11:57.423Z,70573.22
2022-10-06T17:14:25.639Z,70556.47
2022-10-06T17:16:56.100Z,70514.03
2022-10-06T17:19:28.012Z,70533.09
2022-10-06T17:21:58.926Z,70510.78
2022-10-06T17:24:28.935Z,70482.88
2022-10-06T17:26:57.367Z,70481.47
2022-10-06T17:29:25.887Z,70449.75
2022-10-06T17:31:58.750Z,70467.16
2022-10-06T17:34:31.896Z,70485.44
2022-10-06T17:37:01.039Z,70419.06
2022-10-06T17:39:28.646Z,70437.19
2022-10-06T17:41:56.521Z,70404.97
2022-10-06T17:44:26.285Z,70400.72
2022-10-06T17:46:59.134Z,70432.50
2022-10-06T17:49:26.620Z,70418.09
2022-10-06T17:51:55.281Z,70391.88
2022-10-06T17:54:25.483Z,70376.31
2022-10-06T17:56:55.723Z,70386.97
2022-10-06T17:59:30.509Z,70364.72
2022-10-06T18:02:02.421Z,70372.38
2022-10-06T18:04:30.390Z,70388.00
2022-10-06T18:06:57.727Z,70322.78
2022-10-06T18:09:25.194Z,70355.25
2022-10-06T18:11:56.393Z,70292.88
2022-10-06T18:14:32.312Z,70329.91
2022-10-06T18:17:02.334Z,70326.19
2022-10-06T18:19:31.850Z,70302.69
2022-10-06T18:22:12.860Z,70288.34
2022-10-06T18:24:40.546Z,70264.84
2022-10-06T18:27:08.528Z,70256.94
2022-10-06T18:29:38.355Z,70253.97
2022-10-06T18:37:42.081Z,70228.47
2022-10-06T18:40:11.091Z,70254.13
2022-10-06T18:42:39.424Z,70226.22
2022-10-06T18:45:26.942Z,70243.00
2022-10-06T18:48:13.095Z,70228.31
2022-10-06T18:50:40.368Z,70216.63
2022-10-06T18:53:07.572Z,70191.06
2022-10-06T18:55:34.898Z,70213.75
2022-10-06T18:58:02.331Z,70224.00
2022-10-06T19:00:29.359Z,70227.19
2022-10-06T19:02:56.856Z,70189.88
2022-10-06T19:05:24.410Z,70177.03
2022-10-06T19:07:53.916Z,70173.25
2022-10-06T19:10:21.846Z,70160.06
2022-10-06T19:12:49.539Z,70180.09
2022-10-06T19:15:20.343Z,70193.00
2022-10-06T19:17:48.988Z,70164.75
2022-10-06T19:20:16.539Z,70130.84
2022-10-06T19:22:43.604Z,70124.88
2022-10-06T19:25:11.225Z,70134.91
2022-10-06T19:27:38.243Z,70160.50
2022-10-06T19:30:05.794Z,70122.00
2022-10-06T19:32:33.046Z,70114.06
2022-10-06T19:35:00.441Z,70149.13
2022-10-06T19:37:30.197Z,70100.09
2022-10-06T19:39:58.207Z,70059.34
2022-10-06T19:42:43.968Z,70074.09
2022-10-06T19:45:12.298Z,70087.94
2022-10-06T19:47:40.328Z,70060.63
2022-10-06T19:50:12.144Z,70049.47
2022-10-06T19:52:41.332Z,70059.19
2022-10-06T19:55:08.478Z,70032.50
2022-10-06T19:57:35.674Z,70074.44
2022-10-06T20:00:04.364Z,70066.78
2022-10-06T20:02:42.906Z,70057.13
2022-10-06T20:05:15.978Z,70086.50
2022-10-06T20:07:46.082Z,70047.78
2022-10-06T20:10:14.678Z,70035.22
2022-10-06T20:12:42.011Z,70054.56
2022-10-06T20:15:10.166Z,70040.81
2022-10-06T20:17:37.874Z,70024.72
2022-10-06T20:20:05.471Z,70028.78
2022-10-06T20:22:32.620Z,70002.66
2022-10-06T20:25:01.778Z,70054.09
2022-10-06T20:27:28.838Z,70041.72
2022-10-06T20:29:57.795Z,70068.47
2022-10-06T20:32:24.842Z,70053.22
2022-10-06T20:34:51.825Z,70022.44
2022-10-06T20:37:18.803Z,70008.38
2022-10-06T20:40:04.418Z,70033.88
2022-10-06T20:42:31.424Z,70008.72
2022-10-06T20:44:58.557Z,70002.84
2022-10-06T20:47:25.840Z,69989.44
2022-10-06T20:49:55.099Z,69968.06
2022-10-06T20:52:23.894Z,70002.72
2022-10-06T20:54:51.187Z,69979.88
2022-10-06T20:57:18.302Z,69940.28
2022-10-06T20:59:46.147Z,69958.09
2022-10-06T21:02:13.463Z,69960.75
2022-10-06T21:04:43.716Z,69953.16
2022-10-06T21:07:11.277Z,69990.16
2022-10-06T21:09:38.360Z,69960.00
2022-10-06T21:12:05.489Z,69956.81
2022-10-06T21:14:34.165Z,69909.31
2022-10-06T21:17:01.784Z,69919.03
2022-10-06T21:19:30.025Z,69978.53
2022-10-06T21:21:57.255Z,69927.88
2022-10-06T21:24:24.369Z,69915.84
2022-10-06T21:26:52.763Z,69946.38
2022-10-06T21:29:20.853Z,69912.94
2022-10-06T21:31:47.955Z,69892.44
2022-10-06T21:34:15.153Z,69933.56
2022-10-06T21:36:43.843Z,69913.56
2022-10-06T21:39:12.747Z,69908.84
2022-10-06T21:41:40.715Z,69901.91
2022-10-06T21:44:11.879Z,69864.09
2022-10-06T21:46:46.710Z,69904.88
2022-10-06T21:49:17.691Z,69865.06
2022-10-06T21:51:48.431Z,69878.50
2022-10-06T21:54:16.358Z,69880.84
2022-10-06T21:56:44.215Z,69841.88
2022-10-06T21:59:12.045Z,69894.38
2022-10-06T22:01:44.479Z,69885.66
2022-10-06T22:04:14.201Z,69852.06
2022-10-06T22:06:42.954Z,69870.47
2022-10-06T22:09:15.545Z,69851.47
2022-10-06T22:11:43.465Z,69796.72
2022-10-06T22:14:17.766Z,69829.56
2022-10-06T22:16:45.725Z,69841.84
2022-10-06T22:19:14.815Z,69830.13
2022-10-06T22:21:45.305Z,69798.19
2022-10-06T22:24:16.719Z,69824.56
2022-10-06T22:26:45.256Z,69848.56
2022-10-06T22:29:16.188Z,69815.75
2022-10-06T22:31:46.170Z,69834.25
2022-10-06T22:34:17.461Z,69819.97
2022-10-06T22:36:44.909Z,69783.69
2022-10-06T22:39:12.012Z,69776.44
2022-10-06T22:41:39.203Z,69779.81
2022-10-06T22:44:06.479Z,69802.72
2022-10-06T22:46:36.838Z,69791.38
2022-10-06T22:49:05.525Z,69788.63
2022-10-06T22:51:32.731Z,69796.31
2022-10-06T22:54:00.545Z,69794.31
2022-10-06T22:56:30.351Z,69759.53
2022-10-06T22:59:00.716Z,69782.38
2022-10-06T23:01:29.472Z,69787.94
2022-10-06T23:03:57.512Z,69770.16
2022-10-06T23:06:25.354Z,69739.78
2022-10-06T23:08:52.942Z,69767.84
2022-10-06T23:11:22.131Z,69748.25
2022-10-06T23:13:50.496Z,69785.66
2022-10-06T23:16:19.624Z,69749.63
2022-10-06T23:18:47.994Z,69768.06
2022-10-06T23:21:21.515Z,69747.38
2022-10-06T23:23:54.468Z,69759.09
2022-10-06T23:26:23.161Z,69742.09
2022-10-06T23:29:01.109Z,69752.03
2022-10-06T23:31:29.639Z,69717.50
2022-10-06T23:33:56.973Z,69765.16
2022-10-06T23:36:24.586Z,69755.22
2022-10-06T23:38:51.773Z,69727.50
2022-10-06T23:41:18.885Z,69741.59
2022-10-06T23:43:46.368Z,69727.59
2022-10-06T23:46:14.645Z,69754.47
2022-10-06T23:48:42.406Z,69705.38
2022-10-06T23:51:15.500Z,69743.38
2022-10-06T23:53:43.685Z,69751.53
2022-10-06T23:56:11.817Z,69714.75
2022-10-06T23:58:39.610Z,69708.91
